Wilmington, OH

4:48 PM EDT on August 21, 2014 (GMT -0400)
Springfield-Beckley Municipal | Change Station
CLOSE
Current Station
Airport
Location: Springfield,
Elevation: 1050 ft
Nearby Weather Stations

Elev 1050 ft 39.84 °N, 83.84 °W | Updated 52 minutes ago

Light Rain
Light Rain
72 °F
Feels Like 72 °F
N
6
Wind Variable Wind from SSW

Today
High -- | Low -- °F
--% Chance of Precip.
Yesterday
High -- | Low -- °F
Precip. -- in
6:53 AM 8:22 PM
Waning Crescent, 12% visible
Pressure 30.05 in
Visibility 9.0 miles
Clouds Few 700 ft
Scattered Clouds 7000 ft
Dew Point 71 °F
Humidity 96%
Rainfall 0.64 in
Snow Depth Not available.
UV 6 out of 12
Pollen 8.50 out of 12
Ozone Good
PM2.5 Good
Flu Activity Not available.
METAR KSGH 211956Z AUTO 20005KT 9SM -RA FEW007 SCT070 22/22 A3007 RMK AO2 T02220216 P0003 SLP176

More Conditions Fewer Conditions

Pressure 30.05 in
Visibility 9.0 miles
Clouds Few 700 ft
Scattered Clouds 7000 ft
Dew Point 71 °F
Humidity 96%
Rainfall 0.64 in
Snow Depth Not available.
UV 6 out of 12
Pollen 8.50 out of 12
Ozone Good
PM2.5 Good
Flu Activity Not available.
METAR KSGH 211956Z AUTO 20005KT 9SM -RA FEW007 SCT070 22/22 A3007 RMK AO2 T02220216 P0003 SLP176

More Conditions Fewer Conditions

10-Day Weather Forecast

Almanac

Astronomy

Aug. 21, 2014 Rise Set
Actual Time 6:53 AM EDT 8:22 PM EDT
Civil Twilight 6:25 AM EDT 8:50 PM EDT
Nautical Twilight 5:51 AM EDT 9:24 PM EDT
Astronomical Twilight 5:15 AM EDT 10:00 PM EDT
Moon 3:23 AM EDT 5:50 PM EDT
Length of Visible Light 14h 25m
Length of Day
13h 29m
Tomorrow will be 2m 23s shorter.
Waning Crescent, 12% of the Moon is Illuminated
Today
Waning Crescent
Aug 25
New
Sep 2
First Quarter
Sep 8
Full
Sep 15
Last Quarter

Today's Extremes

State Highs State Lows

Community

WunderPhotos

Upload Photos

1,746,017 photos uploaded!

WunderBlogs® & News

Nearby

Air Quality

  Air Quality AQ Index Pollutant
Yesterday Good
OZONE
Yesterday Good
PM2.5
Current Good
PM2.5
Current Good
OZONE
Thursday Moderate
PM2.5
Thursday Good
OZONE
Friday Moderate
PM2.5
Friday Good
OZONE
Saturday Moderate
PM2.5
Saturday Good
OZONE
Sunday Good
PM2.5
Sunday Good
OZONE
Monday Good
OZONE
Monday Good
PM2.5

Snow Depth

Station Depth Elevation
No new snow has been reported.

Earthquake Activity

City Distance Mag. Time & Date
No recent earthquake activity has been reported nearby.
Minimum magnitude displayed is 2.5.

Coastal Water Temperatures

Place Temperature
No Stations Reporting

Nearby Weather Stations